Time;durP1;ratioP1;P1;durP2;ratioP2;P2;SDS_P1;SDS_P2;PMS_P1;PMS_P2;Temp;Humidity;BMP_temperature;BMP_pressure;BME280_temperature;BME280_humidity;BME280_pressure;Samples;Min_cycle;Max_cycle;Signal;HPM_P1;HPM_P2
2022/07/24 00:00:38;;;;;;;12.00;10.27;;;;;;;19.05;72.77;101938.22;4998654;28;20026;-74
2022/07/24 00:03:03;;;;;;;12.98;10.20;;;;;;;19.04;72.71;101944.47;4997329;28;20145;-74
2022/07/24 00:05:29;;;;;;;12.80;10.60;;;;;;;19.02;72.53;101938.41;4996896;28;20526;-74
2022/07/24 00:07:54;;;;;;;16.38;10.75;;;;;;;19.01;72.62;101929.59;4980274;28;20337;-74
2022/07/24 00:10:20;;;;;;;11.93;10.63;;;;;;;19.00;72.67;101935.84;4982546;28;20459;-74
2022/07/24 00:12:45;;;;;;;12.45;11.25;;;;;;;18.98;72.79;101938.56;4997921;28;20041;-74
2022/07/24 00:15:11;;;;;;;11.65;10.48;;;;;;;18.97;72.75;101928.03;4997007;28;20054;-74
2022/07/24 00:17:37;;;;;;;12.60;11.25;;;;;;;18.95;72.81;101922.81;4997992;28;20046;-74
2022/07/24 00:20:05;;;;;;;13.48;12.07;;;;;;;18.94;72.97;101926.44;4980446;28;20074;-74
2022/07/24 00:22:30;;;;;;;15.10;11.40;;;;;;;18.93;73.04;101926.53;4997254;28;20247;-74
2022/07/24 00:24:56;;;;;;;13.02;11.25;;;;;;;18.92;73.08;101928.34;4996471;28;20101;-74
2022/07/24 00:27:21;;;;;;;12.82;11.52;;;;;;;18.89;73.34;101933.81;4996772;28;20046;-74
2022/07/24 00:29:46;;;;;;;13.45;11.18;;;;;;;18.89;73.20;101932.97;4980361;28;20038;-74
2022/07/24 00:32:13;;;;;;;12.23;10.05;;;;;;;18.88;73.44;101937.44;4979685;28;20038;-74
2022/07/24 00:34:38;;;;;;;11.80;10.48;;;;;;;18.87;73.32;101938.34;4980242;28;20029;-74
2022/07/24 00:37:04;;;;;;;11.77;10.65;;;;;;;18.86;73.51;101933.97;4980030;28;20368;-74
2022/07/24 00:39:29;;;;;;;11.95;10.25;;;;;;;18.85;73.58;101942.91;4997140;28;20747;-74
2022/07/24 00:41:55;;;;;;;12.00;10.57;;;;;;;18.84;73.50;101937.69;4996479;28;20045;-74
2022/07/24 00:44:20;;;;;;;13.10;11.13;;;;;;;18.83;73.68;101943.91;4996848;28;20030;-74
2022/07/24 00:46:47;;;;;;;11.43;9.75;;;;;;;18.82;73.49;101936.91;4997358;28;20113;-74
2022/07/24 00:49:15;;;;;;;13.30;10.95;;;;;;;18.79;73.70;101935.25;4996998;28;20034;-74
2022/07/24 00:51:42;;;;;;;12.20;10.93;;;;;;;18.79;73.84;101932.59;4997146;28;20045;-74
2022/07/24 00:54:08;;;;;;;14.52;10.52;;;;;;;18.77;73.79;101932.72;4996867;28;20030;-75
2022/07/24 00:56:35;;;;;;;13.65;11.10;;;;;;;18.76;73.85;101932.78;4978843;28;20281;-74
2022/07/24 00:59:01;;;;;;;13.60;10.88;;;;;;;18.76;73.88;101935.44;4996732;28;20065;-74
2022/07/24 01:04:54;;;;;;;;;;;;;;;18.74;73.85;101930.22;4928534;28;20057;-77
2022/07/24 01:07:20;;;;;;;11.43;9.23;;;;;;;18.73;73.69;101925.00;4980614;28;20232;-76
2022/07/24 01:09:45;;;;;;;9.80;8.82;;;;;;;18.72;73.52;101917.97;4979033;28;20332;-77
2022/07/24 01:12:12;;;;;;;10.75;8.43;;;;;;;18.72;73.48;101917.97;4978651;28;20049;-76
2022/07/24 01:14:38;;;;;;;9.02;8.23;;;;;;;18.72;73.48;101907.34;4995906;28;20038;-77
2022/07/24 01:17:04;;;;;;;10.88;8.57;;;;;;;18.71;73.73;101908.31;4996010;28;20050;-77
2022/07/24 01:19:29;;;;;;;11.35;7.78;;;;;;;18.70;73.69;101903.94;4996060;28;20104;-77
2022/07/24 01:21:55;;;;;;;10.85;8.10;;;;;;;18.70;73.71;101909.25;4995115;28;20337;-77
2022/07/24 01:24:21;;;;;;;13.18;7.70;;;;;;;18.69;73.69;101902.25;4977991;28;20296;-77
2022/07/24 01:26:47;;;;;;;12.45;7.88;;;;;;;18.69;73.46;101904.91;4997113;28;20034;-77
2022/07/24 01:29:14;;;;;;;9.55;7.15;;;;;;;18.69;73.72;101907.56;4996857;28;20214;-77
2022/07/24 01:31:39;;;;;;;10.18;7.32;;;;;;;18.67;73.53;101905.00;4995444;28;20041;-77
2022/07/24 01:34:05;;;;;;;8.95;7.35;;;;;;;18.67;73.58;101904.13;4996865;28;20034;-77
2022/07/24 01:36:30;;;;;;;15.10;7.63;;;;;;;18.66;73.75;101908.56;4996410;28;20073;-76
2022/07/24 01:38:55;;;;;;;7.60;5.93;;;;;;;18.65;73.72;101908.69;4997067;28;20318;-77
2022/07/24 01:41:21;;;;;;;9.10;6.05;;;;;;;18.65;73.25;101903.38;4996541;28;20249;-76
2022/07/24 01:43:46;;;;;;;7.70;6.07;;;;;;;18.64;73.02;101904.31;4996945;28;20361;-76
2022/07/24 01:46:12;;;;;;;8.85;6.10;;;;;;;18.65;73.14;101903.38;4996531;28;20372;-76
2022/07/24 01:48:38;;;;;;;9.13;6.00;;;;;;;18.65;72.97;101904.22;4995468;28;20056;-76
2022/07/24 01:51:04;;;;;;;8.07;5.90;;;;;;;18.65;72.84;101900.72;4995945;28;20065;-76
2022/07/24 01:53:29;;;;;;;6.10;4.97;;;;;;;18.65;72.64;101898.91;4995314;28;20380;-76
2022/07/24 01:55:55;;;;;;;9.02;4.80;;;;;;;18.65;72.42;101895.41;4978987;28;20046;-76
2022/07/24 01:58:20;;;;;;;6.70;4.60;;;;;;;18.65;72.37;101893.63;4996146;28;20053;-76
2022/07/24 02:00:46;;;;;;;8.10;5.00;;;;;;;18.65;72.33;101890.97;4996595;28;20046;-76
2022/07/24 02:03:12;;;;;;;7.07;4.45;;;;;;;18.65;72.23;101890.97;4995909;28;20034;-76
2022/07/24 02:05:37;;;;;;;9.30;3.85;;;;;;;18.64;72.00;101891.88;4979107;28;20054;-76
2022/07/24 02:08:03;;;;;;;4.63;3.80;;;;;;;18.65;71.99;101892.75;4996721;28;20260;-76
2022/07/24 02:10:29;;;;;;;4.50;4.10;;;;;;;18.65;71.85;101890.13;4995697;28;20042;-76
2022/07/24 02:12:55;;;;;;;6.38;4.32;;;;;;;18.64;72.05;101891.03;4997109;28;20500;-76
2022/07/24 02:15:20;;;;;;;4.50;3.92;;;;;;;18.65;72.02;101887.47;4995781;28;20379;-76
2022/07/24 02:17:47;;;;;;;9.65;4.07;;;;;;;18.65;71.78;101882.16;4997703;28;20109;-76
2022/07/24 02:20:12;;;;;;;8.40;3.88;;;;;;;18.65;71.94;101876.84;5010056;28;20054;-77
2022/07/24 02:22:37;;;;;;;5.30;3.80;;;;;;;18.64;72.54;101875.97;4996303;28;20054;-74
2022/07/24 02:25:03;;;;;;;7.78;4.15;;;;;;;18.63;72.62;101876.94;4995770;28;20037;-74
2022/07/24 02:27:29;;;;;;;7.45;3.95;;;;;;;18.61;72.62;101876.16;4995400;28;20067;-74
2022/07/24 02:29:54;;;;;;;7.65;4.22;;;;;;;18.59;72.61;101876.25;4995435;28;20042;-74
2022/07/24 02:32:19;;;;;;;7.32;4.43;;;;;;;18.58;72.95;101865.72;4977803;28;20034;-74
2022/07/24 02:34:45;;;;;;;6.10;4.03;;;;;;;18.57;72.79;101878.16;4996127;28;20050;-74
2022/07/24 02:37:10;;;;;;;6.25;4.18;;;;;;;18.56;72.82;101875.59;4995349;28;20345;-76
2022/07/24 02:39:36;;;;;;;5.00;3.70;;;;;;;18.54;72.97;101875.66;4996299;28;20076;-77
2022/07/24 02:42:01;;;;;;;3.80;3.60;;;;;;;18.53;73.00;101871.28;4996217;28;20042;-77
2022/07/24 02:44:26;;;;;;;4.95;4.00;;;;;;;18.52;72.77;101879.34;4995579;28;20093;-77
2022/07/24 02:46:52;;;;;;;4.82;4.30;;;;;;;18.51;73.24;101867.88;4995870;28;20034;-77
2022/07/24 02:49:17;;;;;;;4.70;4.07;;;;;;;18.51;72.95;101864.38;4981573;28;20038;-77
2022/07/24 02:51:42;;;;;;;7.13;4.30;;;;;;;18.50;73.21;101867.97;4977817;28;20045;-77
2022/07/24 02:54:08;;;;;;;6.50;4.13;;;;;;;18.48;73.14;101865.41;4978685;28;20074;-77
2022/07/24 02:56:33;;;;;;;5.70;3.90;;;;;;;18.48;73.13;101860.13;4974785;28;20544;-77
2022/07/24 02:58:59;;;;;;;4.00;3.65;;;;;;;18.48;73.18;101856.59;4976678;28;20219;-77
2022/07/24 03:01:24;;;;;;;4.72;4.13;;;;;;;18.47;73.27;101852.25;4988632;28;20046;-77
2022/07/24 03:03:49;;;;;;;4.80;4.07;;;;;;;18.48;73.36;101854.81;4996527;28;20038;-77
2022/07/24 03:06:15;;;;;;;4.05;3.70;;;;;;;18.45;73.24;101847.03;4997780;28;20038;-77
2022/07/24 03:08:40;;;;;;;5.45;4.53;;;;;;;18.46;73.26;101850.53;4982623;28;20034;-77
2022/07/24 03:11:05;;;;;;;5.40;3.88;;;;;;;18.45;73.35;101840.88;4999682;28;20347;-77
2022/07/24 03:13:31;;;;;;;4.68;4.25;;;;;;;18.44;73.41;101844.44;5004364;28;20042;-76
2022/07/24 03:15:56;;;;;;;4.25;3.92;;;;;;;18.42;73.28;101840.06;4981836;28;20037;-76
2022/07/24 03:18:22;;;;;;;4.25;3.80;;;;;;;18.42;73.39;101839.22;4982272;28;20363;-77
2022/07/24 03:20:47;;;;;;;6.60;4.35;;;;;;;18.42;73.46;101844.53;4999762;28;20233;-77
2022/07/24 03:23:13;;;;;;;4.15;3.58;;;;;;;18.40;73.41;101843.78;4995678;28;20034;-76
2022/07/24 03:25:38;;;;;;;5.60;3.38;;;;;;;18.39;73.53;101828.78;4999754;28;20046;-76
2022/07/24 03:28:04;;;;;;;4.25;3.85;;;;;;;18.39;73.39;101831.44;4999847;28;20041;-76
2022/07/24 03:30:29;;;;;;;7.32;4.05;;;;;;;18.38;73.36;101825.28;4957771;28;20037;-76
2022/07/24 03:32:55;;;;;;;4.93;3.83;;;;;;;18.37;73.72;101817.44;4998125;28;20153;-79
2022/07/24 03:35:20;;;;;;;4.63;4.10;;;;;;;18.36;73.56;101819.22;4983060;28;20034;-77
2022/07/24 03:37:45;;;;;;;5.45;4.15;;;;;;;18.33;73.83;101822.06;4999634;28;20144;-76
2022/07/24 03:40:12;;;;;;;4.47;4.07;;;;;;;18.34;73.88;101833.53;5006531;28;20088;-76
2022/07/24 03:42:37;;;;;;;6.80;4.35;;;;;;;18.33;73.88;101837.97;4997661;28;20034;-77
2022/07/24 03:45:03;;;;;;;4.40;4.00;;;;;;;18.32;73.71;101832.75;4998998;28;20040;-76
2022/07/24 03:47:29;;;;;;;5.18;3.78;;;;;;;18.31;73.77;101831.06;4998751;28;20026;-76
2022/07/24 03:49:54;;;;;;;3.85;3.47;;;;;;;18.31;73.72;101836.34;4999419;28;20113;-76
2022/07/24 03:52:19;;;;;;;4.90;4.28;;;;;;;18.30;73.62;101830.22;4998165;28;20078;-77
2022/07/24 03:54:45;;;;;;;4.55;3.78;;;;;;;18.30;73.69;101838.16;4998808;28;20030;-77
2022/07/24 03:57:10;;;;;;;4.18;3.03;;;;;;;18.29;73.73;101843.53;4997434;28;20030;-77
2022/07/24 03:59:36;;;;;;;4.93;3.30;;;;;;;18.27;73.88;101840.13;4999066;28;20034;-77
2022/07/24 04:02:01;;;;;;;6.82;3.70;;;;;;;18.27;73.75;101832.19;4999249;28;20088;-76
2022/07/24 04:04:27;;;;;;;5.80;3.15;;;;;;;18.26;73.75;101835.75;4998437;28;20057;-77
2022/07/24 04:06:52;;;;;;;3.97;3.50;;;;;;;18.25;73.87;101834.06;4998776;28;20038;-77
2022/07/24 04:09:17;;;;;;;4.65;3.30;;;;;;;18.23;73.80;101835.00;4998772;28;20034;-76
2022/07/24 04:11:44;;;;;;;4.72;3.22;;;;;;;18.23;73.73;101823.53;4998928;28;20061;-77
2022/07/24 04:14:10;;;;;;;3.13;2.92;;;;;;;18.21;73.63;101823.63;4999020;28;20255;-77
2022/07/24 04:16:35;;;;;;;3.42;3.13;;;;;;;18.22;73.67;101821.81;4981046;28;20038;-77
2022/07/24 04:19:01;;;;;;;3.00;2.80;;;;;;;18.20;73.61;101819.25;4981518;28;20043;-76
2022/07/24 04:21:26;;;;;;;2.95;2.70;;;;;;;18.19;73.79;101817.56;4996829;28;20041;-76
2022/07/24 04:23:51;;;;;;;3.63;3.00;;;;;;;18.19;73.89;101820.22;4998373;28;20067;-76
2022/07/24 04:26:17;;;;;;;2.97;2.78;;;;;;;18.18;73.60;101812.34;4977563;28;20034;-76
2022/07/24 04:28:44;;;;;;;3.05;2.75;;;;;;;18.17;73.90;101822.09;4998930;28;20054;-76
2022/07/24 04:31:10;;;;;;;4.30;2.80;;;;;;;18.16;73.95;101823.03;4981203;28;20123;-76
2022/07/24 04:33:35;;;;;;;3.92;2.88;;;;;;;18.16;73.62;101832.78;4981006;28;20046;-76
2022/07/24 04:36:01;;;;;;;2.65;2.45;;;;;;;18.15;73.45;101831.06;4997460;28;20032;-76
2022/07/24 04:38:26;;;;;;;2.50;2.30;;;;;;;18.15;73.45;101833.72;4969339;28;20042;-76
2022/07/24 04:40:52;;;;;;;4.05;2.30;;;;;;;18.15;73.54;101825.75;4995877;28;20041;-76
2022/07/24 04:43:17;;;;;;;2.65;2.45;;;;;;;18.15;73.06;101828.41;4982890;28;20133;-76
2022/07/24 04:45:42;;;;;;;3.28;2.25;;;;;;;18.14;73.34;101827.56;4996661;28;20045;-76
2022/07/24 04:48:08;;;;;;;2.40;2.20;;;;;;;18.14;73.14;101832.03;5000413;28;20276;-79
2022/07/24 04:50:34;;;;;;;2.28;2.08;;;;;;;18.14;72.78;101834.69;5002423;28;20081;-76
2022/07/24 04:52:59;;;;;;;3.40;1.67;;;;;;;18.14;72.53;101840.81;4977796;28;20038;-76
2022/07/24 04:55:24;;;;;;;2.30;2.10;;;;;;;18.15;72.69;101839.03;4995711;28;20064;-76
2022/07/24 04:57:50;;;;;;;2.42;2.22;;;;;;;18.14;72.97;101838.16;4996033;28;20129;-76
2022/07/24 05:00:16;;;;;;;2.35;2.15;;;;;;;18.15;72.58;101831.06;4996227;28;20049;-76
2022/07/24 05:02:41;;;;;;;2.20;1.95;;;;;;;18.13;72.53;101839.09;4997711;28;20538;-76
2022/07/24 05:05:07;;;;;;;2.70;2.38;;;;;;;18.12;72.78;101840.06;4993923;28;20050;-76
2022/07/24 05:07:32;;;;;;;2.67;2.30;;;;;;;18.12;72.65;101837.41;4995135;28;20042;-76
2022/07/24 05:09:58;;;;;;;2.00;1.83;;;;;;;18.13;72.84;101839.09;4995334;28;20225;-76
2022/07/24 05:12:24;;;;;;;2.10;1.90;;;;;;;18.12;72.52;101834.75;4995665;28;20479;-76
2022/07/24 05:14:50;;;;;;;3.00;2.10;;;;;;;18.13;72.71;101840.91;4978772;28;20038;-76
2022/07/24 05:17:15;;;;;;;3.83;2.00;;;;;;;18.12;72.70;101842.72;4993877;28;20058;-76
2022/07/24 05:19:41;;;;;;;3.13;2.08;;;;;;;18.12;72.48;101844.47;4978308;28;20045;-76
2022/07/24 05:22:06;;;;;;;3.00;1.80;;;;;;;18.12;72.37;101848.00;4995734;28;20112;-76
2022/07/24 05:24:31;;;;;;;2.53;2.05;;;;;;;18.13;72.27;101848.84;4994977;28;20042;-76
2022/07/24 05:26:57;;;;;;;2.22;2.10;;;;;;;18.12;71.82;101860.38;4995494;28;20038;-76
2022/07/24 05:29:22;;;;;;;2.28;2.08;;;;;;;18.12;72.08;101863.03;4977470;28;20145;-76
2022/07/24 05:31:49;;;;;;;2.03;1.92;;;;;;;18.11;71.62;101862.19;4995469;28;20030;-76
2022/07/24 05:34:14;;;;;;;2.97;2.17;;;;;;;18.11;71.53;101867.50;4995354;28;20052;-76
2022/07/24 05:36:40;;;;;;;2.63;2.30;;;;;;;18.13;71.86;101862.13;4994605;28;20223;-76
2022/07/24 05:39:05;;;;;;;2.20;2.10;;;;;;;18.13;71.96;101862.97;4995796;28;20036;-76
2022/07/24 05:41:31;;;;;;;2.35;2.15;;;;;;;18.13;72.13;101860.31;4992259;28;20376;-76
2022/07/24 05:43:57;;;;;;;2.15;2.00;;;;;;;18.13;72.18;101864.75;4994204;28;20205;-76
2022/07/24 05:46:22;;;;;;;3.47;2.00;;;;;;;18.14;72.11;101871.78;4995150;28;20073;-76
2022/07/24 05:48:48;;;;;;;2.40;2.20;;;;;;;18.14;71.90;101866.47;4995444;28;20310;-76
2022/07/24 05:51:13;;;;;;;2.63;2.42;;;;;;;18.15;71.80;101861.06;4994708;28;20215;-76
2022/07/24 05:53:38;;;;;;;2.28;2.17;;;;;;;18.16;71.88;101865.44;4994084;28;20046;-76
2022/07/24 05:56:04;;;;;;;2.65;2.42;;;;;;;18.17;72.06;101861.88;4995024;28;20038;-76
2022/07/24 05:58:29;;;;;;;2.75;2.53;;;;;;;18.18;72.31;101855.59;4994986;28;20343;-76
2022/07/24 06:00:55;;;;;;;3.95;2.47;;;;;;;18.19;72.72;101854.69;4977975;28;20046;-76
2022/07/24 06:03:20;;;;;;;2.97;2.72;;;;;;;18.21;72.68;101854.59;4994598;28;20049;-76
2022/07/24 06:05:46;;;;;;;3.38;2.42;;;;;;;18.23;72.74;101850.06;4977320;28;20058;-76
2022/07/24 06:08:11;;;;;;;2.13;2.03;;;;;;;18.24;72.73;101851.75;4994668;28;20033;-76
2022/07/24 06:10:37;;;;;;;2.20;2.10;;;;;;;18.26;72.56;101856.97;4994777;28;20338;-76
2022/07/24 06:13:02;;;;;;;2.80;2.13;;;;;;;18.26;72.25;101855.16;4977912;28;20064;-76
2022/07/24 06:15:28;;;;;;;2.25;2.05;;;;;;;18.26;72.05;101847.22;4994536;28;20092;-76
2022/07/24 06:17:55;;;;;;;3.75;2.30;;;;;;;18.28;72.10;101849.78;4995090;28;20043;-76
2022/07/24 06:20:20;;;;;;;3.72;2.60;;;;;;;18.29;72.32;101854.16;4994738;28;20333;-76
2022/07/24 06:22:46;;;;;;;2.20;2.10;;;;;;;18.29;72.28;101854.16;4998689;28;20053;-76
2022/07/24 06:25:11;;;;;;;2.35;1.90;;;;;;;18.29;71.60;101868.25;4977404;28;20041;-76
2022/07/24 06:27:44;;;;;;;1.73;1.63;;;;;;;18.30;71.36;101866.44;4994879;28;20106;-76
2022/07/24 06:30:17;;;;;;;2.50;2.30;;;;;;;18.30;72.18;101866.44;4994789;28;20045;-76
2022/07/24 06:32:43;;;;;;;2.80;2.53;;;;;;;18.32;72.48;101864.56;4986854;28;20136;-76
2022/07/24 06:35:09;;;;;;;2.50;2.30;;;;;;;18.33;72.28;101864.47;4993297;28;20042;-76
2022/07/24 06:37:35;;;;;;;2.20;1.73;;;;;;;18.35;72.23;101859.94;4976758;28;20299;-76
2022/07/24 06:40:00;;;;;;;2.35;2.08;;;;;;;18.38;72.20;101856.28;4995932;28;20042;-76
2022/07/24 06:42:26;;;;;;;2.00;1.90;;;;;;;18.42;72.72;101860.44;4996052;28;20037;-76
2022/07/24 06:44:51;;;;;;;1.95;1.80;;;;;;;18.44;72.63;101857.72;4998844;28;20316;-76
2022/07/24 06:47:17;;;;;;;1.90;1.80;;;;;;;18.45;72.16;101862.94;4998986;28;20045;-76
2022/07/24 06:49:42;;;;;;;4.50;2.05;;;;;;;18.47;72.26;101857.53;4979207;28;20245;-76
2022/07/24 06:52:07;;;;;;;3.60;2.28;;;;;;;18.48;72.19;101859.25;4966303;28;20034;-76
2022/07/24 06:54:33;;;;;;;3.58;2.17;;;;;;;18.49;71.72;101856.50;4999785;28;20038;-76
2022/07/24 06:56:58;;;;;;;2.00;1.90;;;;;;;18.51;71.81;101857.25;4982575;28;20034;-76
2022/07/24 06:59:24;;;;;;;1.90;1.77;;;;;;;18.52;71.94;101855.47;4982061;28;20057;-76
2022/07/24 07:01:49;;;;;;;3.00;2.00;;;;;;;18.54;72.01;101857.09;4965917;28;20034;-76
2022/07/24 07:04:14;;;;;;;1.88;1.73;;;;;;;18.55;71.74;101858.78;4998754;28;20054;-76
2022/07/24 07:06:40;;;;;;;2.50;2.30;;;;;;;18.57;72.30;101864.88;4980425;28;20034;-76
2022/07/24 07:09:05;;;;;;;2.00;1.73;;;;;;;18.58;72.74;101868.38;4998218;28;20030;-76
2022/07/24 07:11:31;;;;;;;3.22;1.80;;;;;;;18.62;72.37;101859.28;4980993;28;20037;-76
2022/07/24 07:13:56;;;;;;;3.42;2.13;;;;;;;18.64;72.97;101861.88;4999547;28;20038;-77
2022/07/24 07:16:21;;;;;;;2.83;2.10;;;;;;;18.65;72.67;101847.66;4981714;28;20045;-76
2022/07/24 07:18:47;;;;;;;3.92;2.00;;;;;;;18.67;72.52;101856.38;4962415;28;20097;-76
2022/07/24 07:21:13;;;;;;;2.05;1.70;;;;;;;18.69;72.44;101843.88;4994271;28;20049;-76
2022/07/24 07:23:38;;;;;;;1.90;1.80;;;;;;;18.71;72.27;101855.25;4982035;28;20046;-76
2022/07/24 07:26:04;;;;;;;1.95;1.75;;;;;;;18.73;72.32;101851.56;4999507;28;20077;-76
2022/07/24 07:28:29;;;;;;;2.90;1.63;;;;;;;18.78;72.35;101869.88;4981343;28;20085;-76
2022/07/24 07:30:54;;;;;;;1.90;1.80;;;;;;;18.81;72.54;101856.47;4980969;28;20038;-76
2022/07/24 07:33:20;;;;;;;2.47;1.80;;;;;;;18.82;72.66;101855.50;4996625;28;20026;-76
2022/07/24 07:35:45;;;;;;;1.75;1.65;;;;;;;18.86;72.42;101859.66;4987014;28;20041;-76
2022/07/24 07:38:11;;;;;;;1.88;1.75;;;;;;;18.89;72.34;101859.50;4997236;28;20042;-76
2022/07/24 07:40:36;;;;;;;1.80;1.70;;;;;;;18.93;72.41;101854.84;4980674;28;20034;-77
2022/07/24 07:43:02;;;;;;;1.90;1.80;;;;;;;18.97;72.26;101845.75;4964404;28;20034;-76
2022/07/24 07:45:27;;;;;;;2.28;1.90;;;;;;;19.02;72.27;101858.78;4997799;28;20330;-76
2022/07/24 07:47:52;;;;;;;2.17;1.40;;;;;;;19.06;72.12;101847.00;4981153;28;20194;-76
2022/07/24 07:50:18;;;;;;;2.20;1.52;;;;;;;19.08;72.18;101855.72;4980049;28;20030;-76
2022/07/24 07:52:43;;;;;;;1.70;1.60;;;;;;;19.12;72.28;101851.97;4981094;28;20030;-77
2022/07/24 07:55:09;;;;;;;1.80;1.70;;;;;;;19.16;72.62;101843.69;4998693;28;20236;-77
2022/07/24 07:57:34;;;;;;;1.73;1.63;;;;;;;19.21;72.70;101851.41;4993698;28;20045;-76
2022/07/24 08:00:00;;;;;;;2.03;1.77;;;;;;;19.24;72.44;101843.22;4981492;28;20022;-77
2022/07/24 08:02:25;;;;;;;1.55;1.45;;;;;;;19.28;72.95;101839.47;4980902;28;20038;-77
2022/07/24 08:04:51;;;;;;;1.92;1.73;;;;;;;19.31;72.60;101831.28;4982615;28;20162;-77
2022/07/24 08:07:16;;;;;;;2.67;1.90;;;;;;;19.34;72.10;101827.59;4997200;28;20046;-79
2022/07/24 08:09:41;;;;;;;2.08;1.88;;;;;;;19.36;72.09;101828.34;4998320;28;20301;-77
2022/07/24 08:12:07;;;;;;;2.65;1.60;;;;;;;19.40;72.21;101831.69;4998623;28;20093;-76
2022/07/24 08:14:33;;;;;;;2.63;1.58;;;;;;;19.43;71.79;101828.81;4997698;28;20360;-77
2022/07/24 08:16:58;;;;;;;2.22;1.90;;;;;;;19.46;72.34;101828.63;4998836;28;20132;-77
2022/07/24 08:19:24;;;;;;;1.83;1.73;;;;;;;19.49;71.67;101831.94;4998474;28;20092;-77
2022/07/24 08:21:49;;;;;;;5.22;1.98;;;;;;;19.53;71.71;101829.94;4980894;28;20110;-77
2022/07/24 08:24:20;;;;;;;1.98;1.80;;;;;;;19.56;71.71;101835.06;4996722;28;20030;-77
2022/07/24 08:26:46;;;;;;;2.47;2.00;;;;;;;19.61;71.59;101832.13;4998067;28;20042;-77
2022/07/24 08:29:12;;;;;;;1.98;1.83;;;;;;;19.64;71.37;101831.94;4996654;28;20026;-77
2022/07/24 08:31:37;;;;;;;2.20;2.10;;;;;;;19.67;71.13;101835.25;4997927;28;20272;-77
2022/07/24 08:34:02;;;;;;;2.00;1.80;;;;;;;19.72;71.57;101841.13;4998294;28;20349;-77
2022/07/24 08:36:28;;;;;;;1.77;1.67;;;;;;;19.77;70.95;101838.19;4979808;28;20256;-77
2022/07/24 08:38:53;;;;;;;2.17;1.98;;;;;;;19.82;70.96;101825.47;4998143;28;20053;-77
2022/07/24 08:41:19;;;;;;;3.63;1.90;;;;;;;19.85;70.76;101837.72;5006589;28;20303;-77
2022/07/24 08:43:44;;;;;;;2.55;1.80;;;;;;;19.88;70.65;101832.19;4998146;28;20244;-77
2022/07/24 08:46:12;;;;;;;2.40;1.67;;;;;;;19.90;70.62;101830.28;4991306;28;20045;-77
2022/07/24 08:48:43;;;;;;;2.10;1.88;;;;;;;19.95;70.64;101830.84;4971096;28;20027;-77
2022/07/24 08:51:10;;;;;;;2.22;1.90;;;;;;;19.98;70.44;101816.53;4992184;28;20444;-77
2022/07/24 08:53:35;;;;;;;1.90;1.80;;;;;;;20.02;70.42;101812.69;4997376;28;20049;-77
2022/07/24 08:56:01;;;;;;;4.28;2.40;;;;;;;20.08;70.64;101814.94;4995064;28;20034;-77
2022/07/24 08:58:26;;;;;;;3.13;2.13;;;;;;;20.13;70.15;101820.81;4991286;28;20045;-77
2022/07/24 09:00:51;;;;;;;2.13;1.85;;;;;;;20.17;70.07;101822.31;4997475;28;20113;-79
2022/07/24 09:03:17;;;;;;;1.90;1.80;;;;;;;20.22;69.90;101828.19;4995670;28;20093;-77
2022/07/24 09:05:54;;;;;;;3.17;2.10;;;;;;;20.32;70.28;101817.81;4983943;28;20253;-77
2022/07/24 09:08:19;;;;;;;1.83;1.73;;;;;;;20.37;70.14;101823.66;4996506;28;20057;-77
2022/07/24 09:10:55;;;;;;;1.85;1.75;;;;;;;20.46;70.07;101811.56;4990942;28;20345;-77
2022/07/24 09:13:25;;;;;;;2.45;2.10;;;;;;;20.49;70.02;101820.19;4983258;28;20048;-77
2022/07/24 09:15:50;;;;;;;2.53;2.30;;;;;;;20.53;69.08;101819.00;4989027;28;20043;-77
2022/07/24 09:18:27;;;;;;;2.13;2.03;;;;;;;20.59;69.18;101816.91;4979103;28;20050;-77
2022/07/24 09:20:53;;;;;;;2.10;1.90;;;;;;;20.62;69.40;101811.41;4993764;28;20098;-77
2022/07/24 09:23:21;;;;;;;2.15;1.90;;;;;;;20.65;69.23;101811.22;5001852;28;20037;-77
2022/07/24 09:25:52;;;;;;;2.50;2.20;;;;;;;20.70;68.94;101811.72;4992171;28;20221;-77
2022/07/24 09:28:19;;;;;;;3.00;1.80;;;;;;;20.73;69.17;101808.03;4989373;28;20041;-77
2022/07/24 09:30:45;;;;;;;2.28;2.10;;;;;;;20.75;69.45;101820.25;4992890;28;20022;-77
2022/07/24 09:33:11;;;;;;;1.85;1.75;;;;;;;20.80;68.98;101815.47;4979426;28;20038;-77
2022/07/24 09:35:48;;;;;;;2.03;1.90;;;;;;;20.85;69.33;101810.69;4990046;28;20065;-77
2022/07/24 09:38:22;;;;;;;2.10;1.90;;;;;;;20.93;68.43;101809.31;4993835;28;20249;-77
2022/07/24 09:40:51;;;;;;;2.17;1.98;;;;;;;20.99;68.55;101812.41;4991746;28;20367;-77
2022/07/24 09:43:27;;;;;;;1.70;1.60;;;;;;;21.05;68.16;101806.66;4992313;28;20038;-77
2022/07/24 09:45:59;;;;;;;2.33;2.13;;;;;;;21.09;68.28;101810.78;4996807;28;20105;-77
2022/07/24 09:48:27;;;;;;;1.98;1.80;;;;;;;21.12;68.15;101800.88;4996212;28;20026;-77
2022/07/24 09:50:54;;;;;;;2.13;1.90;;;;;;;21.16;68.34;101800.56;4996538;28;20038;-78
2022/07/24 09:53:22;;;;;;;2.10;1.85;;;;;;;21.21;68.20;101808.22;4995637;28;20219;-77
2022/07/24 09:56:04;;;;;;;4.30;2.15;;;;;;;21.25;68.21;101801.75;4996916;28;20381;-78
2022/07/24 09:58:31;;;;;;;2.28;1.70;;;;;;;21.30;68.04;101804.91;4985005;28;20041;-77
2022/07/24 10:00:59;;;;;;;1.75;1.65;;;;;;;21.34;67.90;101801.09;4995481;28;20046;-77
2022/07/24 10:03:28;;;;;;;2.00;1.88;;;;;;;21.40;67.73;101799.78;5001679;28;20095;-77
2022/07/24 10:05:56;;;;;;;2.17;1.90;;;;;;;21.45;67.49;101795.03;5012746;28;20122;-77
2022/07/24 10:08:21;;;;;;;2.08;1.70;;;;;;;21.51;67.28;101799.06;4991855;28;20018;-77
2022/07/24 10:10:49;;;;;;;2.22;1.58;;;;;;;21.53;65.69;101800.63;4982275;28;20026;-77
2022/07/24 10:13:15;;;;;;;1.70;1.60;;;;;;;21.57;66.71;101794.13;4993995;28;20058;-77
2022/07/24 10:15:56;;;;;;;1.77;1.63;;;;;;;21.65;66.63;101794.44;4993528;28;20026;-77
2022/07/24 10:18:29;;;;;;;1.98;1.88;;;;;;;21.71;66.79;101792.28;4994036;28;20054;-77
2022/07/24 10:21:06;;;;;;;1.73;1.52;;;;;;;21.75;67.01;101789.28;4994541;28;20037;-77
2022/07/24 10:23:47;;;;;;;6.85;2.00;;;;;;;21.78;66.95;101790.88;4993646;28;20096;-77
2022/07/24 10:26:24;;;;;;;1.60;1.50;;;;;;;21.82;66.38;101787.84;4994098;28;20105;-77
2022/07/24 10:29:01;;;;;;;2.10;1.70;;;;;;;21.87;65.37;101787.53;4994485;28;20026;-77
2022/07/24 10:31:27;;;;;;;1.90;1.70;;;;;;;21.90;65.08;101787.28;4994230;28;20045;-77
2022/07/24 10:33:57;;;;;;;1.90;1.80;;;;;;;21.96;66.24;101778.00;4992558;28;20217;-77
2022/07/24 10:36:34;;;;;;;2.13;1.70;;;;;;;22.00;66.21;101790.16;4994000;28;20288;-77
2022/07/24 10:39:09;;;;;;;1.60;1.40;;;;;;;22.05;66.21;101777.31;4985880;28;20333;-77
2022/07/24 10:41:35;;;;;;;2.00;1.90;;;;;;;22.08;65.15;101773.56;4999862;28;20026;-77
2022/07/24 10:44:17;;;;;;;1.80;1.70;;;;;;;22.15;65.93;101780.16;4994427;28;20054;-77
2022/07/24 10:47:16;;;;;;;2.95;1.77;;;;;;;22.20;66.00;101772.66;4994463;28;20060;-77
2022/07/24 10:49:49;;;;;;;4.13;1.90;;;;;;;22.26;66.44;101774.00;4994257;28;20088;-77
2022/07/24 10:52:29;;;;;;;1.95;1.85;;;;;;;22.32;65.90;101776.22;4993763;28;20105;-77
2022/07/24 10:55:24;;;;;;;2.17;1.90;;;;;;;22.36;66.49;101765.22;4993690;28;20064;-77
2022/07/24 10:57:59;;;;;;;2.00;1.80;;;;;;;22.40;66.68;101760.50;4992368;28;20255;-77
2022/07/24 11:00:26;;;;;;;4.97;2.30;;;;;;;22.43;64.75;101763.78;4994277;28;20038;-78
2022/07/24 11:02:56;;;;;;;2.13;1.83;;;;;;;22.47;66.28;101775.06;4994118;28;20044;-78
2022/07/24 11:05:30;;;;;;;2.22;1.75;;;;;;;22.51;66.16;101763.19;4993607;28;20057;-77
2022/07/24 11:08:18;;;;;;;2.95;1.90;;;;;;;22.54;65.56;101762.09;4992905;28;20026;-78
2022/07/24 11:10:49;;;;;;;4.85;2.13;;;;;;;22.59;64.09;101757.25;4992882;28;20030;-77
2022/07/24 11:13:33;;;;;;;6.25;2.15;;;;;;;22.64;65.68;101765.75;4993980;28;20014;-78
2022/07/24 11:16:23;;;;;;;2.45;2.13;;;;;;;22.64;64.78;101757.75;4994300;28;20101;-78
2022/07/24 11:18:54;;;;;;;4.63;1.80;;;;;;;22.66;64.47;101749.63;4984612;28;20313;-78
2022/07/24 11:21:29;;;;;;;3.13;1.83;;;;;;;;;;4993941;28;20113;-77
2022/07/24 11:24:13;;;;;;;3.05;2.15;;;;;;;22.73;63.03;101745.50;4993163;28;20026;-78
2022/07/24 11:26:40;;;;;;;1.73;1.63;;;;;;;22.76;63.02;101751.47;4996676;28;20027;-78